sensor_id;sensor_type;location;lat;lon;timestamp;pressure;altitude;pressure_sealevel;temperature;humidity
4590;BME280;2307;48.448;9.216;2023-04-29T00:01:34;95185.69;;;13.78;100.00
4590;BME280;2307;48.448;9.216;2023-04-29T00:04:01;95177.97;;;13.77;100.00
4590;BME280;2307;48.448;9.216;2023-04-29T00:06:27;95178.25;;;13.75;100.00
4590;BME280;2307;48.448;9.216;2023-04-29T00:08:54;95168.16;;;13.72;100.00
4590;BME280;2307;48.448;9.216;2023-04-29T00:11:20;95170.81;;;13.77;100.00
4590;BME280;2307;48.448;9.216;2023-04-29T00:13:47;95168.16;;;13.77;100.00
4590;BME280;2307;48.448;9.216;2023-04-29T00:16:14;95163.38;;;13.74;100.00
4590;BME280;2307;48.448;9.216;2023-04-29T00:18:41;95169.22;;;13.76;100.00
4590;BME280;2307;48.448;9.216;2023-04-29T00:21:07;95168.69;;;13.74;100.00
4590;BME280;2307;48.448;9.216;2023-04-29T00:23:34;95168.16;;;13.77;100.00
4590;BME280;2307;48.448;9.216;2023-04-29T00:26:00;95161.25;;;13.76;100.00
4590;BME280;2307;48.448;9.216;2023-04-29T00:28:26;95158.31;;;13.68;100.00
4590;BME280;2307;48.448;9.216;2023-04-29T00:30:53;95162.53;;;13.64;100.00
4590;BME280;2307;48.448;9.216;2023-04-29T00:33:21;95160.16;;;13.62;100.00
4590;BME280;2307;48.448;9.216;2023-04-29T00:35:47;95159.63;;;13.65;100.00
4590;BME280;2307;48.448;9.216;2023-04-29T00:38:14;95146.09;;;13.67;100.00
4590;BME280;2307;48.448;9.216;2023-04-29T00:40:40;95153.28;;;13.71;100.00
4590;BME280;2307;48.448;9.216;2023-04-29T00:43:07;95155.94;;;13.66;100.00
4590;BME280;2307;48.448;9.216;2023-04-29T00:45:34;95160.69;;;13.64;100.00
4590;BME280;2307;48.448;9.216;2023-04-29T00:48:00;95164.94;;;13.65;100.00
4590;BME280;2307;48.448;9.216;2023-04-29T00:50:28;95170.25;;;13.65;100.00
4590;BME280;2307;48.448;9.216;2023-04-29T00:52:54;95168.13;;;13.67;100.00
4590;BME280;2307;48.448;9.216;2023-04-29T00:55:21;95175.84;;;13.69;100.00
4590;BME280;2307;48.448;9.216;2023-04-29T00:57:48;95168.91;;;13.63;100.00
4590;BME280;2307;48.448;9.216;2023-04-29T01:00:16;95178.22;;;13.65;100.00
4590;BME280;2307;48.448;9.216;2023-04-29T01:02:43;95178.75;;;13.67;100.00
4590;BME280;2307;48.448;9.216;2023-04-29T01:05:11;95178.22;;;13.70;100.00
4590;BME280;2307;48.448;9.216;2023-04-29T01:07:41;95173.69;;;13.66;100.00
4590;BME280;2307;48.448;9.216;2023-04-29T01:10:13;95171.88;;;13.71;100.00
4590;BME280;2307;48.448;9.216;2023-04-29T01:12:40;95171.28;;;13.64;100.00
4590;BME280;2307;48.448;9.216;2023-04-29T01:15:12;95174.47;;;13.61;100.00
4590;BME280;2307;48.448;9.216;2023-04-29T01:17:45;95181.91;;;13.59;100.00
4590;BME280;2307;48.448;9.216;2023-04-29T01:20:14;95173.38;;;13.57;100.00
4590;BME280;2307;48.448;9.216;2023-04-29T01:22:42;95171.28;;;13.59;100.00
4590;BME280;2307;48.448;9.216;2023-04-29T01:25:10;95170.25;;;13.60;100.00
4590;BME280;2307;48.448;9.216;2023-04-29T01:27:38;95162.28;;;13.60;100.00
4590;BME280;2307;48.448;9.216;2023-04-29T01:30:09;95172.84;;;13.55;100.00
4590;BME280;2307;48.448;9.216;2023-04-29T01:32:40;95168.06;;;13.52;100.00
4590;BME280;2307;48.448;9.216;2023-04-29T01:35:10;95171.22;;;13.49;100.00
4590;BME280;2307;48.448;9.216;2023-04-29T01:37:41;95174.41;;;13.51;100.00
4590;BME280;2307;48.448;9.216;2023-04-29T01:40:15;95174.94;;;13.48;100.00
4590;BME280;2307;48.448;9.216;2023-04-29T01:42:45;95170.94;;;13.46;100.00
4590;BME280;2307;48.448;9.216;2023-04-29T01:45:14;95164.84;;;13.45;100.00
4590;BME280;2307;48.448;9.216;2023-04-29T01:47:41;95162.22;;;13.50;100.00
4590;BME280;2307;48.448;9.216;2023-04-29T01:50:08;95155.06;;;13.56;100.00
4590;BME280;2307;48.448;9.216;2023-04-29T01:52:35;95165.13;;;13.49;100.00
4590;BME280;2307;48.448;9.216;2023-04-29T01:55:01;95162.97;;;13.46;100.00
4590;BME280;2307;48.448;9.216;2023-04-29T01:57:30;95155.31;;;13.49;100.00
4590;BME280;2307;48.448;9.216;2023-04-29T01:59:56;95167.47;;;13.45;100.00
4590;BME280;2307;48.448;9.216;2023-04-29T02:02:22;95163.78;;;13.41;100.00
4590;BME280;2307;48.448;9.216;2023-04-29T02:04:49;95155.28;;;13.44;100.00
4590;BME280;2307;48.448;9.216;2023-04-29T02:07:15;95156.59;;;13.42;100.00
4590;BME280;2307;48.448;9.216;2023-04-29T02:09:42;95150.81;;;13.50;100.00
4590;BME280;2307;48.448;9.216;2023-04-29T02:12:08;95156.06;;;13.45;100.00
4590;BME280;2307;48.448;9.216;2023-04-29T02:14:36;95158.19;;;13.38;100.00
4590;BME280;2307;48.448;9.216;2023-04-29T02:17:02;95157.91;;;13.39;100.00
4590;BME280;2307;48.448;9.216;2023-04-29T02:19:29;95164.81;;;13.40;100.00
4590;BME280;2307;48.448;9.216;2023-04-29T02:21:55;95155.47;;;13.32;100.00
4590;BME280;2307;48.448;9.216;2023-04-29T02:24:21;95163.44;;;13.27;100.00
4590;BME280;2307;48.448;9.216;2023-04-29T02:26:48;95163.72;;;13.31;100.00
4590;BME280;2307;48.448;9.216;2023-04-29T02:29:14;95159.97;;;13.32;100.00
4590;BME280;2307;48.448;9.216;2023-04-29T02:31:42;95158.34;;;13.26;100.00
4590;BME280;2307;48.448;9.216;2023-04-29T02:34:09;95158.41;;;13.31;100.00
4590;BME280;2307;48.448;9.216;2023-04-29T02:36:35;95163.94;;;13.24;100.00
4590;BME280;2307;48.448;9.216;2023-04-29T02:39:01;95162.03;;;13.20;100.00
4590;BME280;2307;48.448;9.216;2023-04-29T02:41:28;95167.84;;;13.17;100.00
4590;BME280;2307;48.448;9.216;2023-04-29T02:43:54;95158.84;;;13.18;100.00
4590;BME280;2307;48.448;9.216;2023-04-29T02:46:21;95162.56;;;13.17;100.00
4590;BME280;2307;48.448;9.216;2023-04-29T02:48:48;95164.16;;;13.18;100.00
4590;BME280;2307;48.448;9.216;2023-04-29T02:51:15;95159.91;;;13.17;100.00
4590;BME280;2307;48.448;9.216;2023-04-29T02:53:41;95156.22;;;13.23;100.00
4590;BME280;2307;48.448;9.216;2023-04-29T02:56:07;95157.56;;;13.25;100.00
4590;BME280;2307;48.448;9.216;2023-04-29T02:58:34;95158.31;;;13.16;100.00
4590;BME280;2307;48.448;9.216;2023-04-29T03:01:00;95164.41;;;13.16;100.00
4590;BME280;2307;48.448;9.216;2023-04-29T03:03:28;95162.56;;;13.17;100.00
4590;BME280;2307;48.448;9.216;2023-04-29T03:05:56;95161.25;;;13.19;100.00
4590;BME280;2307;48.448;9.216;2023-04-29T03:08:22;95163.34;;;13.17;100.00
4590;BME280;2307;48.448;9.216;2023-04-29T03:10:49;95166.31;;;13.21;100.00
4590;BME280;2307;48.448;9.216;2023-04-29T03:13:15;95165.25;;;13.22;100.00
4590;BME280;2307;48.448;9.216;2023-04-29T03:15:42;95165.78;;;13.24;100.00
4590;BME280;2307;48.448;9.216;2023-04-29T03:21:00;95163.63;;;13.16;100.00
4590;BME280;2307;48.448;9.216;2023-04-29T03:23:28;95163.34;;;13.12;100.00
4590;BME280;2307;48.448;9.216;2023-04-29T03:25:54;95166.19;;;13.06;100.00
4590;BME280;2307;48.448;9.216;2023-04-29T03:28:21;95156.97;;;13.13;100.00
4590;BME280;2307;48.448;9.216;2023-04-29T03:30:47;95154.06;;;13.15;100.00
4590;BME280;2307;48.448;9.216;2023-04-29T03:33:14;95151.94;;;13.17;100.00
4590;BME280;2307;48.448;9.216;2023-04-29T03:35:40;95145.81;;;13.11;100.00
4590;BME280;2307;48.448;9.216;2023-04-29T03:38:08;95152.97;;;13.11;100.00
4590;BME280;2307;48.448;9.216;2023-04-29T03:40:51;95149.78;;;13.09;100.00
4590;BME280;2307;48.448;9.216;2023-04-29T03:43:18;95144.50;;;13.09;100.00
4590;BME280;2307;48.448;9.216;2023-04-29T03:45:44;95157.47;;;13.10;100.00
4590;BME280;2307;48.448;9.216;2023-04-29T03:48:10;95146.53;;;13.07;100.00
4590;BME280;2307;48.448;9.216;2023-04-29T03:50:37;95152.94;;;13.06;100.00
4590;BME280;2307;48.448;9.216;2023-04-29T03:53:04;95148.72;;;13.10;100.00
4590;BME280;2307;48.448;9.216;2023-04-29T03:55:32;95143.97;;;13.12;100.00
4590;BME280;2307;48.448;9.216;2023-04-29T03:57:58;95145.50;;;13.08;100.00
4590;BME280;2307;48.448;9.216;2023-04-29T04:00:24;95141.75;;;12.99;100.00
4590;BME280;2307;48.448;9.216;2023-04-29T04:02:51;95147.78;;;12.94;100.00
4590;BME280;2307;48.448;9.216;2023-04-29T04:05:17;95149.41;;;12.95;100.00
4590;BME280;2307;48.448;9.216;2023-04-29T04:07:45;95150.16;;;12.91;100.00
4590;BME280;2307;48.448;9.216;2023-04-29T04:10:11;95133.19;;;12.92;100.00
4590;BME280;2307;48.448;9.216;2023-04-29T04:12:39;95147.03;;;12.94;100.00
4590;BME280;2307;48.448;9.216;2023-04-29T04:15:05;95140.13;;;12.93;100.00
4590;BME280;2307;48.448;9.216;2023-04-29T04:17:32;95139.53;;;12.86;100.00
4590;BME280;2307;48.448;9.216;2023-04-29T04:19:58;95144.53;;;12.82;100.00
4590;BME280;2307;48.448;9.216;2023-04-29T04:22:25;95147.75;;;12.84;100.00
4590;BME280;2307;48.448;9.216;2023-04-29T04:24:53;95145.84;;;12.79;100.00
4590;BME280;2307;48.448;9.216;2023-04-29T04:27:19;95156.44;;;12.79;100.00
4590;BME280;2307;48.448;9.216;2023-04-29T04:29:47;95152.75;;;12.81;100.00
4590;BME280;2307;48.448;9.216;2023-04-29T04:32:13;95160.72;;;12.86;100.00
4590;BME280;2307;48.448;9.216;2023-04-29T04:34:40;95166.25;;;12.79;100.00
4590;BME280;2307;48.448;9.216;2023-04-29T04:37:06;95169.94;;;12.78;100.00
4590;BME280;2307;48.448;9.216;2023-04-29T04:39:32;95169.41;;;12.76;100.00
4590;BME280;2307;48.448;9.216;2023-04-29T04:41:59;95172.03;;;12.71;100.00
4590;BME280;2307;48.448;9.216;2023-04-29T04:44:27;95173.06;;;12.70;100.00
4590;BME280;2307;48.448;9.216;2023-04-29T04:46:55;95181.25;;;12.68;100.00
4590;BME280;2307;48.448;9.216;2023-04-29T04:49:22;95188.66;;;12.66;100.00
4590;BME280;2307;48.448;9.216;2023-04-29T04:51:48;95188.13;;;12.64;100.00
4590;BME280;2307;48.448;9.216;2023-04-29T04:54:15;95196.38;;;12.68;100.00
4590;BME280;2307;48.448;9.216;2023-04-29T04:56:42;95191.81;;;12.63;100.00
4590;BME280;2307;48.448;9.216;2023-04-29T04:59:08;95201.91;;;12.66;100.00
4590;BME280;2307;48.448;9.216;2023-04-29T05:01:34;95202.44;;;12.68;100.00
4590;BME280;2307;48.448;9.216;2023-04-29T05:04:02;95206.13;;;12.62;100.00
4590;BME280;2307;48.448;9.216;2023-04-29T05:06:28;95212.41;;;12.56;100.00
4590;BME280;2307;48.448;9.216;2023-04-29T05:08:55;95218.41;;;12.47;100.00
4590;BME280;2307;48.448;9.216;2023-04-29T05:11:21;95224.16;;;12.65;100.00
4590;BME280;2307;48.448;9.216;2023-04-29T05:13:48;95219.44;;;12.67;100.00
4590;BME280;2307;48.448;9.216;2023-04-29T05:16:14;95223.66;;;12.68;100.00
4590;BME280;2307;48.448;9.216;2023-04-29T05:18:42;95229.00;;;12.73;100.00
4590;BME280;2307;48.448;9.216;2023-04-29T05:21:11;95229.63;;;12.81;100.00
4590;BME280;2307;48.448;9.216;2023-04-29T05:23:37;95234.41;;;12.84;100.00
4590;BME280;2307;48.448;9.216;2023-04-29T05:26:03;95238.84;;;12.78;100.00
4590;BME280;2307;48.448;9.216;2023-04-29T05:28:30;95239.44;;;12.85;100.00
4590;BME280;2307;48.448;9.216;2023-04-29T05:30:56;95241.78;;;12.82;100.00
4590;BME280;2307;48.448;9.216;2023-04-29T05:33:23;95250.22;;;12.73;100.00
4590;BME280;2307;48.448;9.216;2023-04-29T05:35:49;95256.44;;;12.62;100.00
4590;BME280;2307;48.448;9.216;2023-04-29T05:38:17;95263.25;;;12.53;100.00
4590;BME280;2307;48.448;9.216;2023-04-29T05:40:43;95269.66;;;12.57;100.00
4590;BME280;2307;48.448;9.216;2023-04-29T05:43:09;95275.00;;;12.62;100.00
4590;BME280;2307;48.448;9.216;2023-04-29T05:45:36;95272.34;;;12.62;100.00
4590;BME280;2307;48.448;9.216;2023-04-29T05:48:03;95269.75;;;12.67;100.00
4590;BME280;2307;48.448;9.216;2023-04-29T05:50:29;95280.59;;;12.66;100.00
4590;BME280;2307;48.448;9.216;2023-04-29T05:52:56;95282.72;;;12.64;100.00
4590;BME280;2307;48.448;9.216;2023-04-29T05:55:23;95284.53;;;12.58;100.00
4590;BME280;2307;48.448;9.216;2023-04-29T05:57:50;95284.25;;;12.60;100.00
4590;BME280;2307;48.448;9.216;2023-04-29T06:00:16;95292.47;;;12.58;100.00
4590;BME280;2307;48.448;9.216;2023-04-29T06:02:43;95298.06;;;12.62;100.00
4590;BME280;2307;48.448;9.216;2023-04-29T06:05:10;95303.09;;;12.63;100.00
4590;BME280;2307;48.448;9.216;2023-04-29T06:07:36;95295.25;;;12.73;100.00
4590;BME280;2307;48.448;9.216;2023-04-29T06:10:03;95305.47;;;12.87;100.00
4590;BME280;2307;48.448;9.216;2023-04-29T06:12:31;95307.66;;;12.95;100.00
4590;BME280;2307;48.448;9.216;2023-04-29T06:14:57;95305.56;;;12.97;100.00
4590;BME280;2307;48.448;9.216;2023-04-29T06:17:23;95317.75;;;12.98;100.00
4590;BME280;2307;48.448;9.216;2023-04-29T06:19:53;95321.22;;;12.98;100.00
4590;BME280;2307;48.448;9.216;2023-04-29T06:22:19;95322.34;;;13.07;100.00
4590;BME280;2307;48.448;9.216;2023-04-29T06:24:45;95319.34;;;12.99;100.00
4590;BME280;2307;48.448;9.216;2023-04-29T06:27:13;95329.88;;;12.89;100.00
4590;BME280;2307;48.448;9.216;2023-04-29T06:29:41;95335.66;;;12.86;100.00
4590;BME280;2307;48.448;9.216;2023-04-29T06:32:07;95346.75;;;12.83;100.00
4590;BME280;2307;48.448;9.216;2023-04-29T06:34:34;95348.06;;;12.80;100.00
4590;BME280;2307;48.448;9.216;2023-04-29T06:37:01;95343.47;;;12.70;100.00
4590;BME280;2307;48.448;9.216;2023-04-29T06:39:27;95346.13;;;12.70;100.00
4590;BME280;2307;48.448;9.216;2023-04-29T06:41:53;95349.50;;;12.66;100.00
4590;BME280;2307;48.448;9.216;2023-04-29T06:44:20;95348.16;;;12.63;100.00
4590;BME280;2307;48.448;9.216;2023-04-29T06:46:48;95346.16;;;12.75;100.00
4590;BME280;2307;48.448;9.216;2023-04-29T06:49:14;95350.88;;;12.95;100.00
4590;BME280;2307;48.448;9.216;2023-04-29T06:51:41;95347.75;;;13.03;100.00
4590;BME280;2307;48.448;9.216;2023-04-29T06:54:07;95353.81;;;13.25;100.00
4590;BME280;2307;48.448;9.216;2023-04-29T06:56:34;95340.41;;;13.37;100.00
4590;BME280;2307;48.448;9.216;2023-04-29T06:59:00;95342.03;;;13.38;100.00
4590;BME280;2307;48.448;9.216;2023-04-29T07:01:28;95346.75;;;13.36;100.00
4590;BME280;2307;48.448;9.216;2023-04-29T07:03:56;95345.03;;;13.52;100.00
4590;BME280;2307;48.448;9.216;2023-04-29T07:06:22;95342.66;;;13.50;100.00
4590;BME280;2307;48.448;9.216;2023-04-29T07:08:49;95352.41;;;13.45;100.00
4590;BME280;2307;48.448;9.216;2023-04-29T07:11:16;95350.59;;;13.50;100.00
4590;BME280;2307;48.448;9.216;2023-04-29T07:13:43;95349.50;;;13.46;100.00
4590;BME280;2307;48.448;9.216;2023-04-29T07:16:13;95351.66;;;13.49;100.00
4590;BME280;2307;48.448;9.216;2023-04-29T07:18:40;95362.06;;;13.56;100.00
4590;BME280;2307;48.448;9.216;2023-04-29T07:21:07;95359.63;;;13.54;100.00
4590;BME280;2307;48.448;9.216;2023-04-29T07:23:34;95359.22;;;13.67;100.00
4590;BME280;2307;48.448;9.216;2023-04-29T07:26:07;95353.66;;;13.69;100.00
4590;BME280;2307;48.448;9.216;2023-04-29T07:28:33;95358.19;;;13.73;100.00
4590;BME280;2307;48.448;9.216;2023-04-29T07:31:00;95360.31;;;13.71;100.00
4590;BME280;2307;48.448;9.216;2023-04-29T07:33:26;95358.69;;;13.70;100.00
4590;BME280;2307;48.448;9.216;2023-04-29T07:35:53;95360.13;;;13.46;100.00
4590;BME280;2307;48.448;9.216;2023-04-29T07:38:21;95360.22;;;13.61;100.00
4590;BME280;2307;48.448;9.216;2023-04-29T07:40:47;95364.38;;;13.47;100.00
4590;BME280;2307;48.448;9.216;2023-04-29T07:43:14;95377.97;;;13.56;100.00
4590;BME280;2307;48.448;9.216;2023-04-29T07:45:40;95372.06;;;13.49;100.00
4590;BME280;2307;48.448;9.216;2023-04-29T07:48:07;95369.69;;;13.47;100.00
4590;BME280;2307;48.448;9.216;2023-04-29T07:50:33;95374.91;;;13.37;100.00
4590;BME280;2307;48.448;9.216;2023-04-29T07:53:00;95376.41;;;13.28;100.00
4590;BME280;2307;48.448;9.216;2023-04-29T07:55:28;95371.63;;;13.25;100.00
4590;BME280;2307;48.448;9.216;2023-04-29T07:57:55;95381.22;;;13.31;100.00
4590;BME280;2307;48.448;9.216;2023-04-29T08:00:21;95379.72;;;13.45;100.00
4590;BME280;2307;48.448;9.216;2023-04-29T08:02:49;95381.72;;;13.60;100.00
4590;BME280;2307;48.448;9.216;2023-04-29T08:05:16;95385.13;;;13.55;100.00
4590;BME280;2307;48.448;9.216;2023-04-29T08:07:42;95382.78;;;13.59;100.00
4590;BME280;2307;48.448;9.216;2023-04-29T08:10:09;95379.91;;;13.65;100.00
4590;BME280;2307;48.448;9.216;2023-04-29T08:12:37;95382.56;;;13.65;100.00
4590;BME280;2307;48.448;9.216;2023-04-29T08:15:04;95387.09;;;13.70;100.00
4590;BME280;2307;48.448;9.216;2023-04-29T08:17:30;95385.53;;;13.74;100.00
4590;BME280;2307;48.448;9.216;2023-04-29T08:19:57;95381.03;;;13.74;100.00
4590;BME280;2307;48.448;9.216;2023-04-29T08:22:23;95384.81;;;13.83;100.00
4590;BME280;2307;48.448;9.216;2023-04-29T08:24:49;95386.66;;;13.83;100.00
4590;BME280;2307;48.448;9.216;2023-04-29T08:27:16;95382.97;;;13.89;100.00
4590;BME280;2307;48.448;9.216;2023-04-29T08:29:43;95380.66;;;13.98;100.00
4590;BME280;2307;48.448;9.216;2023-04-29T08:32:10;95375.44;;;14.08;100.00
4590;BME280;2307;48.448;9.216;2023-04-29T08:34:36;95371.69;;;14.09;100.00
4590;BME280;2307;48.448;9.216;2023-04-29T08:37:03;95379.66;;;14.04;100.00
4590;BME280;2307;48.448;9.216;2023-04-29T08:39:29;95380.22;;;14.11;100.00
4590;BME280;2307;48.448;9.216;2023-04-29T08:41:56;95377.06;;;14.14;100.00
4590;BME280;2307;48.448;9.216;2023-04-29T08:44:24;95377.28;;;14.12;100.00
4590;BME280;2307;48.448;9.216;2023-04-29T08:46:52;95392.94;;;14.09;100.00
4590;BME280;2307;48.448;9.216;2023-04-29T08:49:19;95384.00;;;14.25;100.00
4590;BME280;2307;48.448;9.216;2023-04-29T08:51:46;95376.03;;;14.25;100.00
4590;BME280;2307;48.448;9.216;2023-04-29T08:54:13;95372.94;;;14.33;100.00
4590;BME280;2307;48.448;9.216;2023-04-29T08:56:41;95380.91;;;14.33;100.00
4590;BME280;2307;48.448;9.216;2023-04-29T08:59:10;95380.06;;;14.32;100.00
4590;BME280;2307;48.448;9.216;2023-04-29T09:01:37;95380.94;;;14.38;100.00
4590;BME280;2307;48.448;9.216;2023-04-29T09:04:10;95377.94;;;14.29;100.00
4590;BME280;2307;48.448;9.216;2023-04-29T09:06:38;95379.94;;;14.54;100.00
4590;BME280;2307;48.448;9.216;2023-04-29T09:09:04;95379.72;;;14.66;100.00
4590;BME280;2307;48.448;9.216;2023-04-29T09:11:31;95385.59;;;14.78;100.00
4590;BME280;2307;48.448;9.216;2023-04-29T09:13:59;95384.81;;;14.82;100.00
4590;BME280;2307;48.448;9.216;2023-04-29T09:16:26;95392.28;;;14.80;100.00
4590;BME280;2307;48.448;9.216;2023-04-29T09:21:39;95381.03;;;14.63;100.00
4590;BME280;2307;48.448;9.216;2023-04-29T09:24:05;95381.88;;;14.74;100.00
4590;BME280;2307;48.448;9.216;2023-04-29T09:26:34;95380.84;;;14.85;100.00
4590;BME280;2307;48.448;9.216;2023-04-29T09:29:05;95387.03;;;15.11;100.00
4590;BME280;2307;48.448;9.216;2023-04-29T09:31:32;95383.31;;;15.17;100.00
4590;BME280;2307;48.448;9.216;2023-04-29T09:33:58;95388.66;;;15.27;100.00
4590;BME280;2307;48.448;9.216;2023-04-29T09:36:38;95386.53;;;15.39;100.00
4590;BME280;2307;48.448;9.216;2023-04-29T09:39:06;95390.06;;;15.50;100.00
4590;BME280;2307;48.448;9.216;2023-04-29T09:41:56;95388.69;;;15.42;100.00
4590;BME280;2307;48.448;9.216;2023-04-29T09:44:24;95392.13;;;15.32;100.00
4590;BME280;2307;48.448;9.216;2023-04-29T09:46:54;95397.16;;;15.29;100.00
4590;BME280;2307;48.448;9.216;2023-04-29T09:49:22;95389.22;;;15.34;100.00
4590;BME280;2307;48.448;9.216;2023-04-29T09:51:53;95393.22;;;15.31;100.00
4590;BME280;2307;48.448;9.216;2023-04-29T09:54:21;95392.91;;;15.23;100.00
4590;BME280;2307;48.448;9.216;2023-04-29T09:56:48;95385.97;;;15.12;100.00
4590;BME280;2307;48.448;9.216;2023-04-29T09:59:15;95386.53;;;15.24;100.00
4590;BME280;2307;48.448;9.216;2023-04-29T10:01:42;95388.69;;;15.42;100.00
4590;BME280;2307;48.448;9.216;2023-04-29T10:04:09;95379.88;;;15.41;100.00
4590;BME280;2307;48.448;9.216;2023-04-29T10:06:36;95382.34;;;15.68;100.00
4590;BME280;2307;48.448;9.216;2023-04-29T10:09:03;95374.34;;;15.73;100.00
4590;BME280;2307;48.448;9.216;2023-04-29T10:11:32;95379.63;;;15.99;100.00
4590;BME280;2307;48.448;9.216;2023-04-29T10:13:59;95382.81;;;16.26;100.00
4590;BME280;2307;48.448;9.216;2023-04-29T10:16:27;95375.34;;;16.33;95.87
4590;BME280;2307;48.448;9.216;2023-04-29T10:18:54;95377.69;;;16.44;99.75
4590;BME280;2307;48.448;9.216;2023-04-29T10:21:23;95374.72;;;16.66;87.68
4590;BME280;2307;48.448;9.216;2023-04-29T10:23:49;95381.06;;;16.80;95.33
4590;BME280;2307;48.448;9.216;2023-04-29T10:26:17;95380.81;;;16.72;96.50
4590;BME280;2307;48.448;9.216;2023-04-29T10:28:46;95372.50;;;16.78;98.66
4590;BME280;2307;48.448;9.216;2023-04-29T10:31:16;95372.38;;;17.09;82.21
4590;BME280;2307;48.448;9.216;2023-04-29T10:33:45;95368.69;;;17.38;87.12
4590;BME280;2307;48.448;9.216;2023-04-29T10:36:13;95375.41;;;17.75;88.18
4590;BME280;2307;48.448;9.216;2023-04-29T10:38:41;95375.72;;;17.68;86.31
4590;BME280;2307;48.448;9.216;2023-04-29T10:41:09;95369.84;;;17.71;93.06
4590;BME280;2307;48.448;9.216;2023-04-29T10:43:40;95370.91;;;17.31;93.07
4590;BME280;2307;48.448;9.216;2023-04-29T10:46:17;95364.59;;;17.51;83.71
4590;BME280;2307;48.448;9.216;2023-04-29T10:48:44;95373.47;;;17.41;82.40
4590;BME280;2307;48.448;9.216;2023-04-29T10:51:10;95378.56;;;17.43;84.66
4590;BME280;2307;48.448;9.216;2023-04-29T10:56:18;95372.06;;;17.15;78.39
4590;BME280;2307;48.448;9.216;2023-04-29T10:58:45;95371.13;;;17.35;91.19
4590;BME280;2307;48.448;9.216;2023-04-29T11:01:12;95368.47;;;17.35;76.54
4590;BME280;2307;48.448;9.216;2023-04-29T11:03:46;95363.66;;;17.37;76.73
4590;BME280;2307;48.448;9.216;2023-04-29T11:06:14;95362.22;;;17.49;78.08
4590;BME280;2307;48.448;9.216;2023-04-29T11:08:40;95359.16;;;17.71;83.72
4590;BME280;2307;48.448;9.216;2023-04-29T11:11:07;95349.34;;;18.19;86.34
4590;BME280;2307;48.448;9.216;2023-04-29T11:13:36;95351.97;;;18.48;74.30
4590;BME280;2307;48.448;9.216;2023-04-29T11:16:03;95351.28;;;18.37;88.70
4590;BME280;2307;48.448;9.216;2023-04-29T11:18:30;95355.03;;;18.13;88.82
4590;BME280;2307;48.448;9.216;2023-04-29T11:21:13;95355.34;;;18.06;93.15
4590;BME280;2307;48.448;9.216;2023-04-29T11:23:40;95345.66;;;17.86;89.68
4590;BME280;2307;48.448;9.216;2023-04-29T11:26:09;95356.34;;;17.86;92.75
4590;BME280;2307;48.448;9.216;2023-04-29T11:28:35;95349.47;;;18.33;88.81
4590;BME280;2307;48.448;9.216;2023-04-29T11:31:02;95355.28;;;18.11;92.77
4590;BME280;2307;48.448;9.216;2023-04-29T11:33:30;95348.91;;;18.36;91.46
4590;BME280;2307;48.448;9.216;2023-04-29T11:35:57;95346.16;;;18.41;94.05
4590;BME280;2307;48.448;9.216;2023-04-29T11:38:24;95349.03;;;18.49;95.45
4590;BME280;2307;48.448;9.216;2023-04-29T11:40:51;95350.69;;;18.69;94.53
4590;BME280;2307;48.448;9.216;2023-04-29T11:43:17;95353.81;;;18.76;90.15
4590;BME280;2307;48.448;9.216;2023-04-29T11:45:44;95356.53;;;18.71;85.77
4590;BME280;2307;48.448;9.216;2023-04-29T11:48:16;95350.59;;;18.74;87.65
4590;BME280;2307;48.448;9.216;2023-04-29T11:50:42;95351.78;;;18.87;89.86
4590;BME280;2307;48.448;9.216;2023-04-29T11:53:09;95358.63;;;18.74;76.21
4590;BME280;2307;48.448;9.216;2023-04-29T11:55:37;95353.59;;;18.91;82.57
4590;BME280;2307;48.448;9.216;2023-04-29T11:58:04;95363.81;;;18.89;77.16
4590;BME280;2307;48.448;9.216;2023-04-29T12:00:31;95362.66;;;18.95;78.92
4590;BME280;2307;48.448;9.216;2023-04-29T12:02:57;95360.53;;;18.74;74.66
4590;BME280;2307;48.448;9.216;2023-04-29T12:05:24;95362.22;;;18.65;74.79
4590;BME280;2307;48.448;9.216;2023-04-29T12:07:54;95363.03;;;18.65;84.11
4590;BME280;2307;48.448;9.216;2023-04-29T12:10:20;95364.25;;;18.49;81.79
4590;BME280;2307;48.448;9.216;2023-04-29T12:12:56;95362.59;;;18.58;79.91
4590;BME280;2307;48.448;9.216;2023-04-29T12:15:23;95363.03;;;18.65;78.84
4590;BME280;2307;48.448;9.216;2023-04-29T12:17:49;95380.75;;;18.32;77.70
4590;BME280;2307;48.448;9.216;2023-04-29T12:20:16;95361.25;;;18.79;77.69
4590;BME280;2307;48.448;9.216;2023-04-29T12:22:50;95362.22;;;18.88;72.99
4590;BME280;2307;48.448;9.216;2023-04-29T12:25:24;95362.31;;;19.02;68.90
4590;BME280;2307;48.448;9.216;2023-04-29T12:27:51;95363.09;;;18.60;67.51
4590;BME280;2307;48.448;9.216;2023-04-29T12:30:25;95360.19;;;18.56;67.66
4590;BME280;2307;48.448;9.216;2023-04-29T12:32:51;95355.50;;;18.43;73.54
4590;BME280;2307;48.448;9.216;2023-04-29T12:35:18;95362.63;;;18.00;90.11
4590;BME280;2307;48.448;9.216;2023-04-29T12:40:25;95356.88;;;17.49;98.83
4590;BME280;2307;48.448;9.216;2023-04-29T12:46:00;95354.88;;;17.70;100.00
4590;BME280;2307;48.448;9.216;2023-04-29T12:48:28;95360.22;;;17.70;100.00
4590;BME280;2307;48.448;9.216;2023-04-29T12:50:54;95359.31;;;17.85;100.00
4590;BME280;2307;48.448;9.216;2023-04-29T12:53:22;95363.00;;;17.89;100.00
4590;BME280;2307;48.448;9.216;2023-04-29T12:55:49;95364.00;;;17.98;100.00
4590;BME280;2307;48.448;9.216;2023-04-29T12:58:15;95362.63;;;18.00;100.00
4590;BME280;2307;48.448;9.216;2023-04-29T13:00:42;95355.84;;;18.37;98.13
4590;BME280;2307;48.448;9.216;2023-04-29T13:03:09;95367.31;;;18.66;97.17
4590;BME280;2307;48.448;9.216;2023-04-29T13:05:36;95360.13;;;18.62;90.04
4590;BME280;2307;48.448;9.216;2023-04-29T13:08:03;95355.41;;;18.53;93.52
4590;BME280;2307;48.448;9.216;2023-04-29T13:10:31;95357.88;;;18.21;91.02
4590;BME280;2307;48.448;9.216;2023-04-29T13:12:57;95362.09;;;18.27;91.27
4590;BME280;2307;48.448;9.216;2023-04-29T13:15:24;95369.88;;;17.95;91.42
4590;BME280;2307;48.448;9.216;2023-04-29T13:23:09;95379.91;;;17.40;94.30
4590;BME280;2307;48.448;9.216;2023-04-29T13:25:36;95384.31;;;17.60;98.49
4590;BME280;2307;48.448;9.216;2023-04-29T13:28:02;95383.84;;;17.53;96.93
4590;BME280;2307;48.448;9.216;2023-04-29T13:30:29;95369.91;;;17.17;94.96
4590;BME280;2307;48.448;9.216;2023-04-29T13:32:55;95369.13;;;17.17;96.68